sensor_id;sensor_type;location;lat;lon;timestamp;temperature;humidity
1806;DHT22;901;48.142;11.516;2023-04-06T00:00:24;0.70;99.90
1806;DHT22;901;48.142;11.516;2023-04-06T00:02:51;0.60;99.90
1806;DHT22;901;48.142;11.516;2023-04-06T00:05:18;0.60;99.90
1806;DHT22;901;48.142;11.516;2023-04-06T00:07:45;0.60;99.90
1806;DHT22;901;48.142;11.516;2023-04-06T00:10:12;0.60;99.90
1806;DHT22;901;48.142;11.516;2023-04-06T00:12:39;0.50;99.90
1806;DHT22;901;48.142;11.516;2023-04-06T00:15:09;0.50;99.90
1806;DHT22;901;48.142;11.516;2023-04-06T00:17:36;0.50;99.90
1806;DHT22;901;48.142;11.516;2023-04-06T00:20:03;0.40;99.90
1806;DHT22;901;48.142;11.516;2023-04-06T00:22:30;0.40;99.90
1806;DHT22;901;48.142;11.516;2023-04-06T00:24:57;0.40;99.90
1806;DHT22;901;48.142;11.516;2023-04-06T00:27:24;0.40;99.90
1806;DHT22;901;48.142;11.516;2023-04-06T00:29:51;0.40;99.90
1806;DHT22;901;48.142;11.516;2023-04-06T00:32:19;0.40;99.90
1806;DHT22;901;48.142;11.516;2023-04-06T00:34:46;0.30;99.90
1806;DHT22;901;48.142;11.516;2023-04-06T00:37:13;0.30;99.90
1806;DHT22;901;48.142;11.516;2023-04-06T00:39:40;0.40;99.90
1806;DHT22;901;48.142;11.516;2023-04-06T00:42:10;0.30;99.90
1806;DHT22;901;48.142;11.516;2023-04-06T00:44:38;0.20;99.90
1806;DHT22;901;48.142;11.516;2023-04-06T00:47:05;0.20;99.90
1806;DHT22;901;48.142;11.516;2023-04-06T00:49:34;0.20;99.90
1806;DHT22;901;48.142;11.516;2023-04-06T00:52:01;0.20;99.90
1806;DHT22;901;48.142;11.516;2023-04-06T00:54:28;0.20;99.90
1806;DHT22;901;48.142;11.516;2023-04-06T00:56:56;0.20;99.90
1806;DHT22;901;48.142;11.516;2023-04-06T00:59:23;0.10;99.90
1806;DHT22;901;48.142;11.516;2023-04-06T01:01:50;0.10;99.90
1806;DHT22;901;48.142;11.516;2023-04-06T01:04:17;0.10;99.90
1806;DHT22;901;48.142;11.516;2023-04-06T01:06:45;0.10;99.90
1806;DHT22;901;48.142;11.516;2023-04-06T01:09:12;0.00;99.90
1806;DHT22;901;48.142;11.516;2023-04-06T01:11:39;0.00;99.90
1806;DHT22;901;48.142;11.516;2023-04-06T01:14:06;0.00;99.90
1806;DHT22;901;48.142;11.516;2023-04-06T01:16:34;0.00;99.90
1806;DHT22;901;48.142;11.516;2023-04-06T01:19:01;-0.10;99.90
1806;DHT22;901;48.142;11.516;2023-04-06T01:21:28;-0.10;99.90
1806;DHT22;901;48.142;11.516;2023-04-06T01:23:56;-0.10;99.90
1806;DHT22;901;48.142;11.516;2023-04-06T01:26:23;-0.10;99.90
1806;DHT22;901;48.142;11.516;2023-04-06T01:28:50;-0.10;99.90
1806;DHT22;901;48.142;11.516;2023-04-06T01:31:17;-0.10;99.90
1806;DHT22;901;48.142;11.516;2023-04-06T01:33:44;-0.20;99.90
1806;DHT22;901;48.142;11.516;2023-04-06T01:36:11;-0.20;99.90
1806;DHT22;901;48.142;11.516;2023-04-06T01:38:38;-0.20;99.90
1806;DHT22;901;48.142;11.516;2023-04-06T01:41:06;-0.20;99.90
1806;DHT22;901;48.142;11.516;2023-04-06T01:43:34;-0.20;99.90
1806;DHT22;901;48.142;11.516;2023-04-06T01:46:01;-0.20;99.90
1806;DHT22;901;48.142;11.516;2023-04-06T01:48:28;-0.20;99.90
1806;DHT22;901;48.142;11.516;2023-04-06T01:50:55;-0.20;99.90
1806;DHT22;901;48.142;11.516;2023-04-06T01:53:22;-0.20;99.90
1806;DHT22;901;48.142;11.516;2023-04-06T01:55:49;-0.30;99.90
1806;DHT22;901;48.142;11.516;2023-04-06T01:58:17;-0.30;99.90
1806;DHT22;901;48.142;11.516;2023-04-06T02:00:44;-0.30;99.90
1806;DHT22;901;48.142;11.516;2023-04-06T02:03:11;-0.30;99.90
1806;DHT22;901;48.142;11.516;2023-04-06T02:05:39;-0.30;99.90
1806;DHT22;901;48.142;11.516;2023-04-06T02:08:06;-0.30;99.90
1806;DHT22;901;48.142;11.516;2023-04-06T02:10:33;-0.40;99.90
1806;DHT22;901;48.142;11.516;2023-04-06T02:13:00;-0.40;99.90
1806;DHT22;901;48.142;11.516;2023-04-06T02:15:29;-0.40;99.90
1806;DHT22;901;48.142;11.516;2023-04-06T02:17:57;-0.40;99.90
1806;DHT22;901;48.142;11.516;2023-04-06T02:20:24;-0.30;99.90
1806;DHT22;901;48.142;11.516;2023-04-06T02:22:51;-0.40;99.90
1806;DHT22;901;48.142;11.516;2023-04-06T02:25:17;-0.40;99.90
1806;DHT22;901;48.142;11.516;2023-04-06T02:27:44;-0.40;99.90
1806;DHT22;901;48.142;11.516;2023-04-06T02:30:11;-0.40;99.90
1806;DHT22;901;48.142;11.516;2023-04-06T02:32:40;-0.50;99.90
1806;DHT22;901;48.142;11.516;2023-04-06T02:35:07;-0.50;99.90
1806;DHT22;901;48.142;11.516;2023-04-06T02:37:34;-0.50;99.90
1806;DHT22;901;48.142;11.516;2023-04-06T02:40:01;-0.50;99.90
1806;DHT22;901;48.142;11.516;2023-04-06T02:42:28;-0.60;99.90
1806;DHT22;901;48.142;11.516;2023-04-06T02:44:55;-0.50;99.90
1806;DHT22;901;48.142;11.516;2023-04-06T02:47:22;-0.50;99.90
1806;DHT22;901;48.142;11.516;2023-04-06T02:49:50;-0.40;99.90
1806;DHT22;901;48.142;11.516;2023-04-06T02:52:17;-0.50;99.90
1806;DHT22;901;48.142;11.516;2023-04-06T02:54:44;-0.50;99.90
1806;DHT22;901;48.142;11.516;2023-04-06T02:57:11;-0.50;99.90
1806;DHT22;901;48.142;11.516;2023-04-06T02:59:38;-0.60;99.90
1806;DHT22;901;48.142;11.516;2023-04-06T03:02:05;-0.60;99.90
1806;DHT22;901;48.142;11.516;2023-04-06T03:04:31;-0.60;99.90
1806;DHT22;901;48.142;11.516;2023-04-06T03:07:00;-0.60;99.90
1806;DHT22;901;48.142;11.516;2023-04-06T03:09:26;-0.60;99.90
1806;DHT22;901;48.142;11.516;2023-04-06T03:11:53;-0.70;99.90
1806;DHT22;901;48.142;11.516;2023-04-06T03:14:20;-0.70;99.90
1806;DHT22;901;48.142;11.516;2023-04-06T03:16:48;-0.70;99.90
1806;DHT22;901;48.142;11.516;2023-04-06T03:19:15;-0.70;99.90
1806;DHT22;901;48.142;11.516;2023-04-06T03:21:42;-0.70;99.90
1806;DHT22;901;48.142;11.516;2023-04-06T03:24:10;-0.70;99.90
1806;DHT22;901;48.142;11.516;2023-04-06T03:26:38;-0.60;99.90
1806;DHT22;901;48.142;11.516;2023-04-06T03:29:05;-0.70;99.90
1806;DHT22;901;48.142;11.516;2023-04-06T03:31:32;-0.70;99.90
1806;DHT22;901;48.142;11.516;2023-04-06T03:33:59;-0.70;99.90
1806;DHT22;901;48.142;11.516;2023-04-06T03:36:26;-0.60;99.90
1806;DHT22;901;48.142;11.516;2023-04-06T03:38:52;-0.60;99.90
1806;DHT22;901;48.142;11.516;2023-04-06T03:41:21;-0.60;99.90
1806;DHT22;901;48.142;11.516;2023-04-06T03:43:48;-0.60;99.90
1806;DHT22;901;48.142;11.516;2023-04-06T03:46:15;-0.60;99.90
1806;DHT22;901;48.142;11.516;2023-04-06T03:48:42;-0.60;99.90
1806;DHT22;901;48.142;11.516;2023-04-06T03:51:09;-0.60;99.90
1806;DHT22;901;48.142;11.516;2023-04-06T03:53:36;-0.70;99.90
1806;DHT22;901;48.142;11.516;2023-04-06T03:56:04;-0.70;99.90
1806;DHT22;901;48.142;11.516;2023-04-06T03:58:32;-0.70;99.90
1806;DHT22;901;48.142;11.516;2023-04-06T04:00:59;-0.70;99.90
1806;DHT22;901;48.142;11.516;2023-04-06T04:03:26;-0.60;99.90
1806;DHT22;901;48.142;11.516;2023-04-06T04:05:53;-0.60;99.90
1806;DHT22;901;48.142;11.516;2023-04-06T04:08:20;-0.60;99.90
1806;DHT22;901;48.142;11.516;2023-04-06T04:10:47;-0.60;99.90
1806;DHT22;901;48.142;11.516;2023-04-06T04:13:14;-0.60;99.90
1806;DHT22;901;48.142;11.516;2023-04-06T04:15:42;-0.60;99.90
1806;DHT22;901;48.142;11.516;2023-04-06T04:18:09;-0.60;99.90
1806;DHT22;901;48.142;11.516;2023-04-06T04:20:36;-0.60;99.90
1806;DHT22;901;48.142;11.516;2023-04-06T04:23:03;-0.60;99.90
1806;DHT22;901;48.142;11.516;2023-04-06T04:25:30;-0.70;99.90
1806;DHT22;901;48.142;11.516;2023-04-06T04:27:56;-0.70;99.90
1806;DHT22;901;48.142;11.516;2023-04-06T04:30:23;-0.70;99.90
1806;DHT22;901;48.142;11.516;2023-04-06T04:32:51;-0.70;99.90
1806;DHT22;901;48.142;11.516;2023-04-06T04:35:18;-0.80;99.90
1806;DHT22;901;48.142;11.516;2023-04-06T04:37:45;-0.80;99.90
1806;DHT22;901;48.142;11.516;2023-04-06T04:40:12;-0.80;99.90
1806;DHT22;901;48.142;11.516;2023-04-06T04:42:40;-0.80;99.90
1806;DHT22;901;48.142;11.516;2023-04-06T04:45:07;-0.70;99.90
1806;DHT22;901;48.142;11.516;2023-04-06T04:47:34;-0.70;99.90
1806;DHT22;901;48.142;11.516;2023-04-06T04:50:02;-0.70;99.90
1806;DHT22;901;48.142;11.516;2023-04-06T04:52:29;-0.60;99.90
1806;DHT22;901;48.142;11.516;2023-04-06T04:54:56;-0.60;99.90
1806;DHT22;901;48.142;11.516;2023-04-06T04:57:23;-0.50;99.90
1806;DHT22;901;48.142;11.516;2023-04-06T04:59:50;-0.40;99.90
1806;DHT22;901;48.142;11.516;2023-04-06T05:02:17;-0.20;99.90
1806;DHT22;901;48.142;11.516;2023-04-06T05:04:44;-0.10;99.90
1806;DHT22;901;48.142;11.516;2023-04-06T05:07:12;0.10;99.90
1806;DHT22;901;48.142;11.516;2023-04-06T05:09:41;0.20;99.90
1806;DHT22;901;48.142;11.516;2023-04-06T05:12:08;0.50;99.90
1806;DHT22;901;48.142;11.516;2023-04-06T05:14:35;0.70;99.90
1806;DHT22;901;48.142;11.516;2023-04-06T05:17:02;1.00;99.90
1806;DHT22;901;48.142;11.516;2023-04-06T05:19:30;1.30;99.90
1806;DHT22;901;48.142;11.516;2023-04-06T05:21:57;1.60;99.90
1806;DHT22;901;48.142;11.516;2023-04-06T05:24:25;1.90;99.90
1806;DHT22;901;48.142;11.516;2023-04-06T05:26:52;2.30;99.90
1806;DHT22;901;48.142;11.516;2023-04-06T05:29:19;2.60;99.90
1806;DHT22;901;48.142;11.516;2023-04-06T05:31:46;2.90;99.90
1806;DHT22;901;48.142;11.516;2023-04-06T05:34:13;3.20;99.90
1806;DHT22;901;48.142;11.516;2023-04-06T05:36:40;3.50;99.90
1806;DHT22;901;48.142;11.516;2023-04-06T05:39:07;3.60;99.90
1806;DHT22;901;48.142;11.516;2023-04-06T05:41:35;3.80;99.90
1806;DHT22;901;48.142;11.516;2023-04-06T05:44:02;3.90;99.90
1806;DHT22;901;48.142;11.516;2023-04-06T05:46:29;4.00;99.90
1806;DHT22;901;48.142;11.516;2023-04-06T05:48:56;3.90;99.90
1806;DHT22;901;48.142;11.516;2023-04-06T05:51:23;4.00;99.90
1806;DHT22;901;48.142;11.516;2023-04-06T05:53:50;4.00;99.90
1806;DHT22;901;48.142;11.516;2023-04-06T05:56:17;4.00;99.90
1806;DHT22;901;48.142;11.516;2023-04-06T05:58:45;4.00;99.90
1806;DHT22;901;48.142;11.516;2023-04-06T06:01:12;4.00;99.90
1806;DHT22;901;48.142;11.516;2023-04-06T06:03:39;3.90;99.90
1806;DHT22;901;48.142;11.516;2023-04-06T06:06:06;3.90;99.90
1806;DHT22;901;48.142;11.516;2023-04-06T06:08:33;4.00;99.90
1806;DHT22;901;48.142;11.516;2023-04-06T06:11:00;4.00;99.90
1806;DHT22;901;48.142;11.516;2023-04-06T06:13:28;3.90;99.90
1806;DHT22;901;48.142;11.516;2023-04-06T06:15:56;3.90;99.90
1806;DHT22;901;48.142;11.516;2023-04-06T06:18:23;3.80;99.90
1806;DHT22;901;48.142;11.516;2023-04-06T06:20:50;3.80;99.90
1806;DHT22;901;48.142;11.516;2023-04-06T06:23:17;3.90;99.90
1806;DHT22;901;48.142;11.516;2023-04-06T06:25:44;4.00;99.90
1806;DHT22;901;48.142;11.516;2023-04-06T06:28:11;4.20;99.90
1806;DHT22;901;48.142;11.516;2023-04-06T06:30:37;4.20;99.90
1806;DHT22;901;48.142;11.516;2023-04-06T06:33:06;4.40;99.90
1806;DHT22;901;48.142;11.516;2023-04-06T06:35:33;4.40;99.90
1806;DHT22;901;48.142;11.516;2023-04-06T06:37:59;4.60;99.90
1806;DHT22;901;48.142;11.516;2023-04-06T06:40:26;4.70;99.90
1806;DHT22;901;48.142;11.516;2023-04-06T06:42:53;4.70;99.90
1806;DHT22;901;48.142;11.516;2023-04-06T06:45:20;4.80;99.90
1806;DHT22;901;48.142;11.516;2023-04-06T06:47:47;5.00;99.90
1806;DHT22;901;48.142;11.516;2023-04-06T06:50:15;5.20;99.90
1806;DHT22;901;48.142;11.516;2023-04-06T06:52:43;5.30;99.90
1806;DHT22;901;48.142;11.516;2023-04-06T06:55:10;5.40;99.90
1806;DHT22;901;48.142;11.516;2023-04-06T06:57:37;5.60;99.90
1806;DHT22;901;48.142;11.516;2023-04-06T07:00:06;5.80;99.90
1806;DHT22;901;48.142;11.516;2023-04-06T07:02:34;6.10;99.90
1806;DHT22;901;48.142;11.516;2023-04-06T07:05:02;6.40;99.90
1806;DHT22;901;48.142;11.516;2023-04-06T07:07:32;6.80;99.90
1806;DHT22;901;48.142;11.516;2023-04-06T07:09:59;7.00;99.90
1806;DHT22;901;48.142;11.516;2023-04-06T07:12:26;7.30;99.90
1806;DHT22;901;48.142;11.516;2023-04-06T07:14:53;7.50;99.90
1806;DHT22;901;48.142;11.516;2023-04-06T07:17:20;7.50;99.90
1806;DHT22;901;48.142;11.516;2023-04-06T07:19:47;7.80;99.90
1806;DHT22;901;48.142;11.516;2023-04-06T07:22:13;8.00;99.90
1806;DHT22;901;48.142;11.516;2023-04-06T07:24:42;8.20;99.90
1806;DHT22;901;48.142;11.516;2023-04-06T07:27:09;8.20;99.90
1806;DHT22;901;48.142;11.516;2023-04-06T07:29:35;8.40;99.90
1806;DHT22;901;48.142;11.516;2023-04-06T07:32:02;8.40;99.90
1806;DHT22;901;48.142;11.516;2023-04-06T07:34:29;8.30;99.90
1806;DHT22;901;48.142;11.516;2023-04-06T07:36:56;8.40;99.90
1806;DHT22;901;48.142;11.516;2023-04-06T07:39:23;8.10;99.90
1806;DHT22;901;48.142;11.516;2023-04-06T07:41:53;8.30;99.90
1806;DHT22;901;48.142;11.516;2023-04-06T07:44:20;8.40;99.90
1806;DHT22;901;48.142;11.516;2023-04-06T07:46:46;8.40;99.90
1806;DHT22;901;48.142;11.516;2023-04-06T07:49:13;8.50;99.90
1806;DHT22;901;48.142;11.516;2023-04-06T07:51:40;8.60;99.90
1806;DHT22;901;48.142;11.516;2023-04-06T07:54:08;8.70;99.90
1806;DHT22;901;48.142;11.516;2023-04-06T07:56:34;8.70;99.90
1806;DHT22;901;48.142;11.516;2023-04-06T07:59:03;8.80;99.90
1806;DHT22;901;48.142;11.516;2023-04-06T08:01:30;9.10;99.90
1806;DHT22;901;48.142;11.516;2023-04-06T08:03:56;9.40;99.90
1806;DHT22;901;48.142;11.516;2023-04-06T08:06:23;9.70;99.90
1806;DHT22;901;48.142;11.516;2023-04-06T08:08:50;9.60;99.90
1806;DHT22;901;48.142;11.516;2023-04-06T08:11:17;9.90;99.90
1806;DHT22;901;48.142;11.516;2023-04-06T08:13:44;10.20;99.90
1806;DHT22;901;48.142;11.516;2023-04-06T08:16:12;10.30;99.10
1806;DHT22;901;48.142;11.516;2023-04-06T08:18:40;10.40;98.50
1806;DHT22;901;48.142;11.516;2023-04-06T08:21:07;10.10;98.40
1806;DHT22;901;48.142;11.516;2023-04-06T08:23:34;10.30;98.50
1806;DHT22;901;48.142;11.516;2023-04-06T08:26:01;10.00;98.80
1806;DHT22;901;48.142;11.516;2023-04-06T08:28:28;10.50;97.90
1806;DHT22;901;48.142;11.516;2023-04-06T08:30:56;10.70;97.90
1806;DHT22;901;48.142;11.516;2023-04-06T08:33:24;10.80;96.80
1806;DHT22;901;48.142;11.516;2023-04-06T08:35:51;10.90;96.00
1806;DHT22;901;48.142;11.516;2023-04-06T08:38:17;10.80;95.50
1806;DHT22;901;48.142;11.516;2023-04-06T08:40:44;10.60;95.70
1806;DHT22;901;48.142;11.516;2023-04-06T08:43:14;9.90;95.40
1806;DHT22;901;48.142;11.516;2023-04-06T08:45:41;9.90;95.30
1806;DHT22;901;48.142;11.516;2023-04-06T08:48:18;9.80;95.80
1806;DHT22;901;48.142;11.516;2023-04-06T08:50:51;9.30;95.80
1806;DHT22;901;48.142;11.516;2023-04-06T08:53:18;9.00;96.50
1806;DHT22;901;48.142;11.516;2023-04-06T08:55:45;9.10;96.10
1806;DHT22;901;48.142;11.516;2023-04-06T08:58:14;9.30;95.70
1806;DHT22;901;48.142;11.516;2023-04-06T09:00:41;9.50;95.80
1806;DHT22;901;48.142;11.516;2023-04-06T09:03:08;9.70;94.80
1806;DHT22;901;48.142;11.516;2023-04-06T09:05:38;9.70;94.40
1806;DHT22;901;48.142;11.516;2023-04-06T09:08:07;9.60;94.50
1806;DHT22;901;48.142;11.516;2023-04-06T09:10:34;9.50;94.60
1806;DHT22;901;48.142;11.516;2023-04-06T09:13:05;9.50;94.70
1806;DHT22;901;48.142;11.516;2023-04-06T09:15:32;9.50;95.50
1806;DHT22;901;48.142;11.516;2023-04-06T09:17:59;9.70;95.00
1806;DHT22;901;48.142;11.516;2023-04-06T09:20:26;9.80;94.70
1806;DHT22;901;48.142;11.516;2023-04-06T09:22:54;9.70;94.10
1806;DHT22;901;48.142;11.516;2023-04-06T09:25:24;9.50;93.90
1806;DHT22;901;48.142;11.516;2023-04-06T09:27:59;9.50;93.90
1806;DHT22;901;48.142;11.516;2023-04-06T09:30:26;9.50;94.00
1806;DHT22;901;48.142;11.516;2023-04-06T09:32:55;9.60;94.00
1806;DHT22;901;48.142;11.516;2023-04-06T09:35:23;9.70;93.70
1806;DHT22;901;48.142;11.516;2023-04-06T09:37:52;9.50;94.00
1806;DHT22;901;48.142;11.516;2023-04-06T09:40:19;9.70;93.60
1806;DHT22;901;48.142;11.516;2023-04-06T09:42:49;9.80;93.40
1806;DHT22;901;48.142;11.516;2023-04-06T09:45:18;9.80;93.10
1806;DHT22;901;48.142;11.516;2023-04-06T09:47:46;9.70;92.90
1806;DHT22;901;48.142;11.516;2023-04-06T09:50:14;9.70;92.80
1806;DHT22;901;48.142;11.516;2023-04-06T09:52:46;9.70;93.10
1806;DHT22;901;48.142;11.516;2023-04-06T09:55:17;9.70;92.60
1806;DHT22;901;48.142;11.516;2023-04-06T09:57:52;9.70;92.90
1806;DHT22;901;48.142;11.516;2023-04-06T10:00:22;9.80;92.90
1806;DHT22;901;48.142;11.516;2023-04-06T10:02:52;9.70;92.80
1806;DHT22;901;48.142;11.516;2023-04-06T10:05:26;9.80;92.90
1806;DHT22;901;48.142;11.516;2023-04-06T10:07:57;10.00;92.20
1806;DHT22;901;48.142;11.516;2023-04-06T10:10:26;10.30;92.30
1806;DHT22;901;48.142;11.516;2023-04-06T10:12:55;10.60;92.20
1806;DHT22;901;48.142;11.516;2023-04-06T10:15:22;11.00;91.70
1806;DHT22;901;48.142;11.516;2023-04-06T10:17:50;11.20;91.10
1806;DHT22;901;48.142;11.516;2023-04-06T10:20:22;11.30;90.60
1806;DHT22;901;48.142;11.516;2023-04-06T10:22:55;11.20;90.00
1806;DHT22;901;48.142;11.516;2023-04-06T10:25:28;11.00;90.20
1806;DHT22;901;48.142;11.516;2023-04-06T10:28:01;10.80;90.20
1806;DHT22;901;48.142;11.516;2023-04-06T10:30:28;11.00;90.10
1806;DHT22;901;48.142;11.516;2023-04-06T10:32:56;11.00;89.70
1806;DHT22;901;48.142;11.516;2023-04-06T10:35:23;11.30;90.10
1806;DHT22;901;48.142;11.516;2023-04-06T10:37:52;11.70;90.40
1806;DHT22;901;48.142;11.516;2023-04-06T10:40:22;12.00;90.00
1806;DHT22;901;48.142;11.516;2023-04-06T10:42:50;12.20;88.40
1806;DHT22;901;48.142;11.516;2023-04-06T10:45:22;12.60;87.70
1806;DHT22;901;48.142;11.516;2023-04-06T10:47:52;12.90;87.00
1806;DHT22;901;48.142;11.516;2023-04-06T10:50:19;13.00;86.30
1806;DHT22;901;48.142;11.516;2023-04-06T10:52:46;13.10;85.80
1806;DHT22;901;48.142;11.516;2023-04-06T10:55:14;13.00;84.70
1806;DHT22;901;48.142;11.516;2023-04-06T10:57:41;13.10;85.40
1806;DHT22;901;48.142;11.516;2023-04-06T11:00:10;13.20;84.20
1806;DHT22;901;48.142;11.516;2023-04-06T11:02:39;13.30;84.60
1806;DHT22;901;48.142;11.516;2023-04-06T11:05:07;13.50;84.30
1806;DHT22;901;48.142;11.516;2023-04-06T11:07:34;13.70;83.10
1806;DHT22;901;48.142;11.516;2023-04-06T11:10:01;13.70;82.10
1806;DHT22;901;48.142;11.516;2023-04-06T11:12:28;13.60;80.90
1806;DHT22;901;48.142;11.516;2023-04-06T11:14:57;13.50;81.10
1806;DHT22;901;48.142;11.516;2023-04-06T11:17:30;13.10;82.70
1806;DHT22;901;48.142;11.516;2023-04-06T11:19:58;12.40;82.10
1806;DHT22;901;48.142;11.516;2023-04-06T11:22:26;12.20;83.30
1806;DHT22;901;48.142;11.516;2023-04-06T11:24:53;12.00;82.60
1806;DHT22;901;48.142;11.516;2023-04-06T11:27:30;11.90;82.00
1806;DHT22;901;48.142;11.516;2023-04-06T11:29:58;12.00;82.50
1806;DHT22;901;48.142;11.516;2023-04-06T11:32:26;12.20;82.80
1806;DHT22;901;48.142;11.516;2023-04-06T11:34:52;12.20;81.10
1806;DHT22;901;48.142;11.516;2023-04-06T11:37:21;12.10;82.10
1806;DHT22;901;48.142;11.516;2023-04-06T11:39:49;12.30;82.40
1806;DHT22;901;48.142;11.516;2023-04-06T11:42:23;12.70;81.90
1806;DHT22;901;48.142;11.516;2023-04-06T11:44:51;13.00;81.40
1806;DHT22;901;48.142;11.516;2023-04-06T11:47:20;13.00;78.00
1806;DHT22;901;48.142;11.516;2023-04-06T11:49:53;13.30;78.80
1806;DHT22;901;48.142;11.516;2023-04-06T11:52:24;13.20;80.10
1806;DHT22;901;48.142;11.516;2023-04-06T11:54:53;12.60;81.20
1806;DHT22;901;48.142;11.516;2023-04-06T11:57:22;12.30;82.00
1806;DHT22;901;48.142;11.516;2023-04-06T11:59:50;12.30;81.70
1806;DHT22;901;48.142;11.516;2023-04-06T12:02:16;12.50;81.90
1806;DHT22;901;48.142;11.516;2023-04-06T12:04:44;12.50;81.10
1806;DHT22;901;48.142;11.516;2023-04-06T12:07:11;12.40;79.70
1806;DHT22;901;48.142;11.516;2023-04-06T12:09:39;12.50;80.30
1806;DHT22;901;48.142;11.516;2023-04-06T12:12:06;12.70;80.40
1806;DHT22;901;48.142;11.516;2023-04-06T12:14:33;12.70;78.50
1806;DHT22;901;48.142;11.516;2023-04-06T12:16:59;12.80;78.60
1806;DHT22;901;48.142;11.516;2023-04-06T12:19:26;13.10;78.80
1806;DHT22;901;48.142;11.516;2023-04-06T12:21:54;13.30;77.60
1806;DHT22;901;48.142;11.516;2023-04-06T12:24:22;13.40;77.40
1806;DHT22;901;48.142;11.516;2023-04-06T12:26:50;13.60;75.60
1806;DHT22;901;48.142;11.516;2023-04-06T12:29:17;13.90;75.20
1806;DHT22;901;48.142;11.516;2023-04-06T12:31:44;14.20;74.30
1806;DHT22;901;48.142;11.516;2023-04-06T12:34:11;14.20;73.10
1806;DHT22;901;48.142;11.516;2023-04-06T12:36:38;14.20;71.50
1806;DHT22;901;48.142;11.516;2023-04-06T12:39:05;14.10;71.40
1806;DHT22;901;48.142;11.516;2023-04-06T12:41:32;13.70;73.30
1806;DHT22;901;48.142;11.516;2023-04-06T12:44:01;13.20;74.90
1806;DHT22;901;48.142;11.516;2023-04-06T12:46:28;12.90;76.10
1806;DHT22;901;48.142;11.516;2023-04-06T12:48:56;12.50;74.70
1806;DHT22;901;48.142;11.516;2023-04-06T12:51:24;12.10;75.00
1806;DHT22;901;48.142;11.516;2023-04-06T12:53:52;12.00;75.70
1806;DHT22;901;48.142;11.516;2023-04-06T12:56:19;11.60;77.20
1806;DHT22;901;48.142;11.516;2023-04-06T12:58:48;11.30;77.00
1806;DHT22;901;48.142;11.516;2023-04-06T13:01:16;11.30;76.90
1806;DHT22;901;48.142;11.516;2023-04-06T13:03:43;11.50;77.70
1806;DHT22;901;48.142;11.516;2023-04-06T13:06:11;11.70;77.40
1806;DHT22;901;48.142;11.516;2023-04-06T13:08:39;11.90;77.70
1806;DHT22;901;48.142;11.516;2023-04-06T13:11:06;12.10;76.40
1806;DHT22;901;48.142;11.516;2023-04-06T13:13:34;12.10;75.60
1806;DHT22;901;48.142;11.516;2023-04-06T13:16:03;11.90;76.10
1806;DHT22;901;48.142;11.516;2023-04-06T13:18:32;11.90;76.30
1806;DHT22;901;48.142;11.516;2023-04-06T13:21:00;12.00;75.90
1806;DHT22;901;48.142;11.516;2023-04-06T13:23:27;11.70;77.90
1806;DHT22;901;48.142;11.516;2023-04-06T13:25:58;11.90;77.00
1806;DHT22;901;48.142;11.516;2023-04-06T13:28:26;11.90;76.70
1806;DHT22;901;48.142;11.516;2023-04-06T13:30:53;12.10;77.00
1806;DHT22;901;48.142;11.516;2023-04-06T13:33:20;12.00;76.50
1806;DHT22;901;48.142;11.516;2023-04-06T13:35:48;12.00;76.30
1806;DHT22;901;48.142;11.516;2023-04-06T13:38:15;12.30;76.40
1806;DHT22;901;48.142;11.516;2023-04-06T13:40:43;12.60;76.80
1806;DHT22;901;48.142;11.516;2023-04-06T13:43:10;13.00;75.30
1806;DHT22;901;48.142;11.516;2023-04-06T13:45:37;13.30;74.20
1806;DHT22;901;48.142;11.516;2023-04-06T13:48:04;13.00;74.10
1806;DHT22;901;48.142;11.516;2023-04-06T13:50:32;12.90;72.90
1806;DHT22;901;48.142;11.516;2023-04-06T13:53:01;13.00;73.60
1806;DHT22;901;48.142;11.516;2023-04-06T13:55:27;13.10;73.70
1806;DHT22;901;48.142;11.516;2023-04-06T13:57:55;13.20;74.70
1806;DHT22;901;48.142;11.516;2023-04-06T14:00:22;12.80;75.80
1806;DHT22;901;48.142;11.516;2023-04-06T14:02:49;12.70;76.90
1806;DHT22;901;48.142;11.516;2023-04-06T14:05:16;12.50;75.60
1806;DHT22;901;48.142;11.516;2023-04-06T14:07:44;12.40;75.30
1806;DHT22;901;48.142;11.516;2023-04-06T14:10:12;12.50;74.90
1806;DHT22;901;48.142;11.516;2023-04-06T14:12:41;12.50;74.30
1806;DHT22;901;48.142;11.516;2023-04-06T14:15:09;12.40;75.10
1806;DHT22;901;48.142;11.516;2023-04-06T14:17:36;12.30;75.20
1806;DHT22;901;48.142;11.516;2023-04-06T14:20:04;12.30;75.60
1806;DHT22;901;48.142;11.516;2023-04-06T14:22:31;12.20;75.60
1806;DHT22;901;48.142;11.516;2023-04-06T14:24:58;11.90;75.50
1806;DHT22;901;48.142;11.516;2023-04-06T14:27:26;11.90;76.20
1806;DHT22;901;48.142;11.516;2023-04-06T14:29:54;12.10;76.40
1806;DHT22;901;48.142;11.516;2023-04-06T14:32:21;12.20;76.30
1806;DHT22;901;48.142;11.516;2023-04-06T14:34:48;12.20;75.20
1806;DHT22;901;48.142;11.516;2023-04-06T14:37:15;12.10;74.70
1806;DHT22;901;48.142;11.516;2023-04-06T14:39:44;12.20;74.10
1806;DHT22;901;48.142;11.516;2023-04-06T14:42:10;12.20;73.90
1806;DHT22;901;48.142;11.516;2023-04-06T14:44:38;12.30;74.10
1806;DHT22;901;48.142;11.516;2023-04-06T14:47:08;12.50;74.50
1806;DHT22;901;48.142;11.516;2023-04-06T14:49:35;12.60;74.50
1806;DHT22;901;48.142;11.516;2023-04-06T14:52:02;12.60;74.70
1806;DHT22;901;48.142;11.516;2023-04-06T14:54:29;12.60;74.00
1806;DHT22;901;48.142;11.516;2023-04-06T14:56:56;12.60;74.00
1806;DHT22;901;48.142;11.516;2023-04-06T14:59:22;12.60;73.70
1806;DHT22;901;48.142;11.516;2023-04-06T15:01:50;12.50;72.40
1806;DHT22;901;48.142;11.516;2023-04-06T15:04:17;12.60;72.90
1806;DHT22;901;48.142;11.516;2023-04-06T15:06:44;12.50;71.20
1806;DHT22;901;48.142;11.516;2023-04-06T15:09:11;12.60;70.60
1806;DHT22;901;48.142;11.516;2023-04-06T15:11:38;12.70;70.20
1806;DHT22;901;48.142;11.516;2023-04-06T15:14:06;12.80;69.80
1806;DHT22;901;48.142;11.516;2023-04-06T15:16:33;12.80;69.30
1806;DHT22;901;48.142;11.516;2023-04-06T15:19:01;13.00;68.90
1806;DHT22;901;48.142;11.516;2023-04-06T15:21:28;13.20;68.40
1806;DHT22;901;48.142;11.516;2023-04-06T15:23:55;13.20;67.90
1806;DHT22;901;48.142;11.516;2023-04-06T15:26:22;13.10;68.00
1806;DHT22;901;48.142;11.516;2023-04-06T15:28:49;13.00;67.40
1806;DHT22;901;48.142;11.516;2023-04-06T15:31:17;13.00;67.60
1806;DHT22;901;48.142;11.516;2023-04-06T15:33:45;13.00;66.10
1806;DHT22;901;48.142;11.516;2023-04-06T15:36:22;12.90;65.80
1806;DHT22;901;48.142;11.516;2023-04-06T15:38:50;12.80;66.60
1806;DHT22;901;48.142;11.516;2023-04-06T15:41:17;12.60;66.10
1806;DHT22;901;48.142;11.516;2023-04-06T15:43:43;12.50;66.40
1806;DHT22;901;48.142;11.516;2023-04-06T15:46:10;12.30;67.30
1806;DHT22;901;48.142;11.516;2023-04-06T15:48:37;12.10;67.70
1806;DHT22;901;48.142;11.516;2023-04-06T15:51:04;11.90;68.70
1806;DHT22;901;48.142;11.516;2023-04-06T15:53:32;11.50;68.50
1806;DHT22;901;48.142;11.516;2023-04-06T15:55:59;11.20;69.00
1806;DHT22;901;48.142;11.516;2023-04-06T15:58:26;11.20;70.00
1806;DHT22;901;48.142;11.516;2023-04-06T16:00:53;11.10;70.30
1806;DHT22;901;48.142;11.516;2023-04-06T16:03:20;11.10;70.80
1806;DHT22;901;48.142;11.516;2023-04-06T16:05:47;11.10;70.80
1806;DHT22;901;48.142;11.516;2023-04-06T16:08:14;11.10;70.20